Time;durP1;ratioP1;P1;durP2;ratioP2;P2;SDS_P1;SDS_P2;PMS_P1;PMS_P2;Temp;Humidity;BMP_temperature;BMP_pressure;BME280_temperature;BME280_humidity;BME280_pressure;Samples;Min_cycle;Max_cycle;Signal;HPM_P1;HPM_P2
2023/09/19 00:02:22;;;;;;;5.10;4.47;;;;;;;20.70;64.37;99898.03;5071626;28;20192;-64
2023/09/19 00:04:49;;;;;;;8.53;4.70;;;;;;;20.66;64.51;99903.09;5071729;28;20269;-64
2023/09/19 00:07:17;;;;;;;5.47;4.97;;;;;;;20.60;64.21;99898.72;5084725;28;20577;-63
2023/09/19 00:09:44;;;;;;;5.83;4.67;;;;;;;20.53;64.19;99904.31;5072030;28;20200;-63
2023/09/19 00:12:13;;;;;;;5.33;4.90;;;;;;;20.50;64.17;99904.81;5071607;28;20253;-64
2023/09/19 00:14:40;;;;;;;9.40;5.23;;;;;;;20.49;64.18;99905.03;5072519;28;20552;-64
2023/09/19 00:17:09;;;;;;;7.37;4.67;;;;;;;20.44;64.32;99910.38;5071463;28;20554;-63
2023/09/19 00:19:37;;;;;;;5.97;5.10;;;;;;;20.39;64.37;99902.22;5071831;28;20195;-63
2023/09/19 00:22:04;;;;;;;5.30;4.83;;;;;;;20.35;64.17;99895.69;5071447;28;20192;-63
2023/09/19 00:24:31;;;;;;;5.30;4.90;;;;;;;20.32;64.61;99896.19;5079496;28;20278;-63
2023/09/19 00:26:58;;;;;;;4.87;4.53;;;;;;;20.29;64.73;99893.97;5091926;28;20274;-64
2023/09/19 00:29:29;;;;;;;5.47;4.60;;;;;;;20.21;64.98;99889.84;5091624;28;20663;-63
2023/09/19 00:31:57;;;;;;;5.13;4.83;;;;;;;20.16;65.02;99897.03;5091913;28;20183;-64
2023/09/19 00:34:25;;;;;;;5.17;4.73;;;;;;;20.08;66.73;99889.31;5083434;28;20212;-64
2023/09/19 00:36:54;;;;;;;5.30;5.00;;;;;;;20.13;66.01;99887.56;5071629;28;20258;-63
2023/09/19 00:39:21;;;;;;;5.07;4.77;;;;;;;20.21;65.36;99897.09;5071364;28;20196;-64
2023/09/19 00:41:48;;;;;;;5.23;4.73;;;;;;;20.28;64.06;99890.47;5071424;28;20258;-63
2023/09/19 00:44:15;;;;;;;5.17;4.77;;;;;;;20.31;65.64;99895.34;5077526;28;20183;-63
2023/09/19 00:46:43;;;;;;;5.67;5.17;;;;;;;20.32;64.08;99890.78;5091268;28;20310;-63
2023/09/19 00:49:10;;;;;;;5.00;4.60;;;;;;;20.35;63.33;99888.41;5091779;28;20294;-63
2023/09/19 00:51:45;;;;;;;6.20;5.07;;;;;;;20.33;63.51;99892.41;5091611;28;20249;-63
2023/09/19 00:54:17;;;;;;;5.33;4.93;;;;;;;20.32;63.27;99894.31;5085562;28;20179;-63
2023/09/19 00:56:45;;;;;;;5.27;4.80;;;;;;;20.27;64.20;99883.47;5071464;28;20291;-63
2023/09/19 00:59:12;;;;;;;5.50;4.97;;;;;;;20.33;63.99;99887.00;5070807;28;20275;-63
2023/09/19 01:01:40;;;;;;;5.93;4.90;;;;;;;20.36;63.37;99883.81;5071006;28;20619;-63
2023/09/19 01:04:07;;;;;;;5.47;5.07;;;;;;;20.44;63.70;99888.78;5075759;28;20196;-63
2023/09/19 01:06:34;;;;;;;4.70;4.40;;;;;;;20.49;63.31;99883.44;5091419;28;20223;-63
2023/09/19 01:09:03;;;;;;;5.43;5.03;;;;;;;20.47;63.71;99889.09;5074374;28;20196;-63
2023/09/19 01:11:39;;;;;;;5.00;4.50;;;;;;;20.48;63.68;99889.91;5071284;28;20250;-63
2023/09/19 01:14:15;;;;;;;5.83;4.63;;;;;;;20.53;63.24;99881.88;5088596;28;20647;-63
2023/09/19 01:16:51;;;;;;;6.93;4.67;;;;;;;20.55;62.61;99885.97;5091628;28;20727;-63
2023/09/19 01:20:04;;;;;;;6.00;4.60;;;;;;;20.58;62.66;99887.34;5095307;28;20283;-63
2023/09/19 01:22:42;;;;;;;5.27;4.80;;;;;;;20.56;62.39;99881.38;5094168;28;20179;-63
2023/09/19 01:25:41;;;;;;;5.53;5.03;;;;;;;20.58;62.71;99879.25;5095337;28;20211;-63
2023/09/19 01:28:28;;;;;;;4.57;4.37;;;;;;;20.49;62.21;99876.19;5095117;28;20259;-63
2023/09/19 01:30:59;;;;;;;4.03;3.73;;;;;;;20.46;63.05;99879.38;5095177;28;20184;-63
2023/09/19 01:33:26;;;;;;;4.70;4.30;;;;;;;20.40;62.60;99872.28;5081689;28;20238;-63
2023/09/19 01:35:57;;;;;;;4.60;4.20;;;;;;;20.35;63.07;99874.91;5074655;28;20291;-63
2023/09/19 01:38:24;;;;;;;4.90;4.20;;;;;;;20.24;63.67;99886.66;5074692;28;20188;-63
2023/09/19 01:41:03;;;;;;;5.00;4.60;;;;;;;20.14;64.30;99883.00;5077737;28;20230;-63
2023/09/19 01:43:34;;;;;;;5.30;5.00;;;;;;;20.06;65.21;99881.47;5094575;28;20712;-63
2023/09/19 01:46:10;;;;;;;7.83;4.77;;;;;;;19.95;65.54;99884.28;5094864;28;20288;-63
2023/09/19 01:48:46;;;;;;;6.23;5.73;;;;;;;19.76;66.53;99872.13;5094785;28;20187;-63
2023/09/19 01:51:19;;;;;;;10.83;6.70;;;;;;;19.77;66.22;99871.06;5086782;28;20184;-64
2023/09/19 01:53:56;;;;;;;19.73;7.40;;;;;;;19.73;66.68;99880.72;5074168;28;20192;-64
2023/09/19 01:56:30;;;;;;;16.37;6.10;;;;;;;19.71;66.87;99869.34;5074370;28;20216;-64
2023/09/19 01:59:03;;;;;;;28.43;7.30;;;;;;;19.66;67.40;99875.50;5074546;28;20258;-63
2023/09/19 02:01:33;;;;;;;11.10;6.20;;;;;;;19.61;67.62;99877.28;5082614;28;20190;-63
2023/09/19 02:04:00;;;;;;;6.10;5.23;;;;;;;19.59;68.09;99874.00;5094484;28;20196;-63
2023/09/19 02:06:27;;;;;;;5.67;5.20;;;;;;;19.59;68.56;99879.38;5094204;28;20222;-63
2023/09/19 02:08:55;;;;;;;11.70;5.57;;;;;;;19.60;67.85;99881.03;5078146;28;20192;-63
2023/09/19 02:11:22;;;;;;;5.77;4.97;;;;;;;19.56;67.74;99871.81;5081392;28;20219;-63
2023/09/19 02:13:49;;;;;;;6.93;5.13;;;;;;;19.55;67.81;99872.84;5093891;28;20210;-63
2023/09/19 02:16:19;;;;;;;7.17;5.60;;;;;;;19.58;68.12;99866.97;5093710;28;20659;-63
2023/09/19 02:18:48;;;;;;;5.60;5.10;;;;;;;19.55;67.27;99867.47;5094300;28;20191;-63
2023/09/19 02:21:15;;;;;;;5.77;4.90;;;;;;;19.52;66.91;99859.88;5086692;28;20191;-64
2023/09/19 02:23:42;;;;;;;12.27;5.07;;;;;;;19.44;67.99;99860.28;5073745;28;20196;-63
2023/09/19 02:26:08;;;;;;;5.20;4.73;;;;;;;19.41;66.59;99856.22;5073280;28;20702;-64
2023/09/19 02:28:35;;;;;;;9.40;4.97;;;;;;;19.34;67.49;99860.09;5072550;28;20204;-63
2023/09/19 02:31:05;;;;;;;11.30;5.23;;;;;;;19.29;67.57;99849.25;5077432;28;20183;-64
2023/09/19 02:33:32;;;;;;;8.03;5.87;;;;;;;19.42;67.08;99857.00;5093415;28;20623;-63
2023/09/19 02:36:03;;;;;;;8.73;6.00;;;;;;;19.47;65.91;99865.16;5093431;28;20293;-63
2023/09/19 02:38:30;;;;;;;7.73;5.30;;;;;;;19.46;65.77;99866.25;5093663;28;20187;-63
2023/09/19 02:40:57;;;;;;;5.00;4.57;;;;;;;19.43;65.92;99864.03;5089297;28;20610;-64
2023/09/19 02:43:24;;;;;;;7.67;4.90;;;;;;;19.39;65.68;99868.25;5073309;28;20203;-63
2023/09/19 02:45:53;;;;;;;5.70;5.20;;;;;;;19.34;65.91;99860.09;5073416;28;20221;-63
2023/09/19 02:48:20;;;;;;;5.53;5.03;;;;;;;19.14;66.38;99873.19;5072840;28;20611;-63
2023/09/19 02:50:50;;;;;;;5.60;5.30;;;;;;;18.99;67.26;99865.63;5074865;28;20211;-63
2023/09/19 02:53:19;;;;;;;4.70;4.27;;;;;;;18.83;66.51;99863.72;5093103;28;20187;-64
2023/09/19 02:55:48;;;;;;;4.77;4.47;;;;;;;18.61;67.42;99859.22;5093330;28;20219;-63
2023/09/19 02:58:14;;;;;;;5.07;4.70;;;;;;;18.33;67.99;99856.50;5092913;28;20731;-64
2023/09/19 03:00:42;;;;;;;6.97;5.17;;;;;;;18.07;68.88;99857.81;5092006;28;20193;-63
2023/09/19 03:03:09;;;;;;;4.77;3.90;;;;;;;17.84;69.80;99848.94;5072441;28;20640;-63
2023/09/19 03:05:38;;;;;;;5.00;4.37;;;;;;;17.75;71.07;99847.63;5072522;28;20219;-64
2023/09/19 03:08:06;;;;;;;5.30;4.40;;;;;;;17.71;70.96;99851.84;5081808;28;20216;-63
2023/09/19 03:10:37;;;;;;;4.73;4.00;;;;;;;17.62;71.17;99859.44;5088224;28;20192;-63
2023/09/19 03:13:04;;;;;;;7.07;4.50;;;;;;;17.69;71.96;99853.94;5072308;28;20185;-63
2023/09/19 03:15:31;;;;;;;5.03;4.60;;;;;;;17.76;70.92;99854.66;5072642;28;20192;-63
2023/09/19 03:17:59;;;;;;;4.50;4.20;;;;;;;17.77;71.10;99850.91;5072527;28;20197;-63
2023/09/19 03:20:27;;;;;;;8.20;5.03;;;;;;;17.80;71.15;99850.47;5072271;28;20250;-63
2023/09/19 03:22:54;;;;;;;5.67;5.17;;;;;;;17.85;71.19;99858.63;5089984;28;20690;-63
2023/09/19 03:25:21;;;;;;;6.67;4.43;;;;;;;17.81;70.37;99852.88;5092786;28;20214;-63
2023/09/19 03:27:49;;;;;;;5.27;4.87;;;;;;;17.81;72.16;99846.72;5091770;28;20246;-63
2023/09/19 03:30:16;;;;;;;9.43;5.03;;;;;;;17.84;71.11;99840.88;5081531;28;20663;-63
2023/09/19 03:32:47;;;;;;;5.20;4.70;;;;;;;17.92;70.33;99859.34;5071748;28;20246;-63
2023/09/19 03:35:14;;;;;;;6.60;4.60;;;;;;;17.98;70.24;99855.69;5071689;28;20258;-63
2023/09/19 03:37:42;;;;;;;4.67;4.27;;;;;;;18.16;73.71;99845.63;5071470;28;20303;-63
2023/09/19 03:40:10;;;;;;;5.20;4.33;;;;;;;18.48;73.76;99844.19;5070837;28;20196;-63
2023/09/19 03:42:39;;;;;;;5.03;4.53;;;;;;;18.72;68.81;99856.53;5071227;28;20193;-63
2023/09/19 03:45:11;;;;;;;20.87;5.93;;;;;;;18.74;67.65;99869.75;5073385;28;20192;-62
2023/09/19 03:47:38;;;;;;;10.73;5.80;;;;;;;18.74;68.91;99862.47;5090037;28;20204;-62
2023/09/19 03:50:07;;;;;;;8.37;4.13;;;;;;;19.08;73.67;99863.38;5091108;28;20673;-60
2023/09/19 03:52:34;;;;;;;5.50;4.63;;;;;;;19.59;70.01;99852.44;5090454;28;20221;-62
2023/09/19 03:55:01;;;;;;;5.00;4.60;;;;;;;19.87;68.39;99860.44;5091381;28;20191;-62
2023/09/19 03:57:27;;;;;;;5.30;4.23;;;;;;;20.10;66.74;99860.28;5091510;28;20626;-63
2023/09/19 03:59:55;;;;;;;12.23;4.90;;;;;;;20.22;65.63;99869.88;5089213;28;20217;-63
2023/09/19 04:02:24;;;;;;;8.53;4.77;;;;;;;20.50;61.69;99872.41;5088015;28;20198;-63
2023/09/19 04:04:51;;;;;;;10.53;4.80;;;;;;;20.61;60.83;99876.06;5089866;28;20249;-63
2023/09/19 04:07:18;;;;;;;24.63;6.00;;;;;;;20.49;60.99;99880.75;5087057;28;20281;-63
2023/09/19 04:09:45;;;;;;;21.20;5.57;;;;;;;20.39;61.74;99870.63;5069712;28;20228;-63
2023/09/19 04:12:12;;;;;;;11.53;5.60;;;;;;;20.44;63.13;99872.59;5070829;28;20246;-65
2023/09/19 04:14:39;;;;;;;20.60;5.60;;;;;;;20.51;62.15;99878.63;5073536;28;20187;-64
2023/09/19 04:17:06;;;;;;;10.27;5.30;;;;;;;20.58;62.86;99871.97;5095052;28;20210;-63
2023/09/19 04:19:34;;;;;;;14.13;5.63;;;;;;;20.63;60.82;99876.63;5091607;28;20187;-63
2023/09/19 04:22:01;;;;;;;22.83;6.40;;;;;;;20.42;61.26;99869.34;5091502;28;20196;-63
2023/09/19 04:24:27;;;;;;;10.93;5.70;;;;;;;20.20;61.81;99871.19;5075636;28;20192;-63
2023/09/19 04:26:54;;;;;;;5.93;4.30;;;;;;;20.15;64.18;99873.81;5071788;28;20219;-62
2023/09/19 04:29:21;;;;;;;11.17;5.40;;;;;;;20.23;64.46;99870.69;5070115;28;20255;-63
2023/09/19 04:31:47;;;;;;;10.93;5.63;;;;;;;20.45;63.84;99863.44;5076147;28;20191;-63
2023/09/19 04:34:16;;;;;;;12.33;4.83;;;;;;;20.72;62.67;99875.13;5090286;28;20191;-63
2023/09/19 04:36:44;;;;;;;10.77;5.20;;;;;;;21.22;60.79;99886.50;5090553;28;20635;-62
2023/09/19 04:39:12;;;;;;;7.07;4.97;;;;;;;21.81;58.81;99896.22;5090928;28;20202;-63
2023/09/19 04:41:40;;;;;;;16.77;5.60;;;;;;;22.24;54.66;99889.75;5089510;28;20219;-63
2023/09/19 04:44:07;;;;;;;7.57;4.97;;;;;;;22.56;55.02;99887.81;5091078;28;20623;-64
2023/09/19 04:46:34;;;;;;;10.70;5.83;;;;;;;22.92;53.24;99890.41;5090450;28;20218;-62
2023/09/19 04:49:00;;;;;;;6.13;4.80;;;;;;;23.14;50.06;99893.69;5091943;28;20196;-62
2023/09/19 04:51:30;;;;;;;8.37;5.40;;;;;;;23.10;49.65;99899.91;5088134;28;20574;-62
2023/09/19 04:53:58;;;;;;;10.77;4.80;;;;;;;22.91;50.30;99896.09;5075356;28;20652;-62
2023/09/19 04:56:25;;;;;;;18.20;5.20;;;;;;;22.88;51.00;99886.59;5075390;28;20618;-62
2023/09/19 04:58:52;;;;;;;20.23;5.43;;;;;;;23.26;50.89;99880.75;5075581;28;20283;-62
2023/09/19 05:01:18;;;;;;;7.53;4.80;;;;;;;23.74;49.75;99882.94;5076546;28;20265;-62
2023/09/19 05:03:49;;;;;;;8.10;4.30;;;;;;;24.11;47.13;99885.38;5095120;28;20247;-62
2023/09/19 05:06:15;;;;;;;7.73;4.70;;;;;;;24.23;45.66;99889.44;5095464;28;20249;-64
2023/09/19 05:08:42;;;;;;;13.40;4.80;;;;;;;24.32;45.20;99885.06;5080507;28;20193;-62
2023/09/19 05:11:10;;;;;;;8.47;4.70;;;;;;;24.28;45.25;99889.41;5075360;28;20281;-65
2023/09/19 05:13:37;;;;;;;7.17;4.90;;;;;;;24.10;46.56;99892.69;5074362;28;20194;-62
2023/09/19 05:16:04;;;;;;;6.33;4.60;;;;;;;24.40;46.69;99889.94;5074568;28;20198;-62
2023/09/19 05:18:31;;;;;;;7.03;4.80;;;;;;;25.03;46.06;99894.56;5074464;28;20548;-63
2023/09/19 05:20:58;;;;;;;4.83;4.40;;;;;;;25.76;43.44;99897.38;5074569;28;20663;-63
2023/09/19 05:23:24;;;;;;;13.00;5.17;;;;;;;26.27;41.61;99899.38;5073813;28;20195;-63
2023/09/19 05:25:52;;;;;;;24.37;6.37;;;;;;;26.44;40.22;99901.63;5074301;28;20554;-62
2023/09/19 05:28:20;;;;;;;9.70;5.27;;;;;;;26.00;40.86;99901.00;5073963;28;20223;-63
2023/09/19 05:30:47;;;;;;;5.00;4.50;;;;;;;25.85;41.49;99895.66;5074113;28;20196;-60
2023/09/19 05:33:14;;;;;;;11.03;4.30;;;;;;;25.83;41.98;99892.41;5090572;28;20213;-60
2023/09/19 05:35:41;;;;;;;8.83;4.23;;;;;;;25.60;41.82;99887.72;5093252;28;20203;-59
2023/09/19 05:38:09;;;;;;;5.07;4.57;;;;;;;25.38;42.39;99892.75;5094246;28;20286;-61
2023/09/19 05:40:38;;;;;;;4.80;4.33;;;;;;;25.35;42.85;99904.22;5083443;28;20279;-60
2023/09/19 05:43:05;;;;;;;7.00;4.70;;;;;;;25.19;42.97;99908.09;5075789;28;20188;-60
2023/09/19 05:45:33;;;;;;;6.17;4.07;;;;;;;24.85;43.99;99908.81;5075955;28;20624;-60
2023/09/19 05:48:09;;;;;;;20.33;5.57;;;;;;;24.79;43.98;99901.75;5073823;28;20276;-60
2023/09/19 05:50:36;;;;;;;4.63;4.20;;;;;;;24.90;45.58;99903.34;5073191;28;20740;-60
2023/09/19 05:53:04;;;;;;;10.80;5.33;;;;;;;25.03;43.83;99908.16;5074140;28;20199;-60
2023/09/19 05:55:30;;;;;;;5.03;4.10;;;;;;;24.90;44.55;99900.63;5073192;28;20281;-60
2023/09/19 05:57:57;;;;;;;7.40;4.57;;;;;;;25.10;44.02;99904.34;5079376;28;20202;-60
2023/09/19 06:00:27;;;;;;;8.97;5.53;;;;;;;25.25;43.38;99898.78;5083153;28;20278;-60
2023/09/19 06:02:56;;;;;;;8.93;4.83;;;;;;;25.40;43.44;99893.28;5086920;28;20226;-60
2023/09/19 06:05:24;;;;;;;6.07;4.73;;;;;;;25.28;44.62;99885.50;5081481;28;20192;-60
2023/09/19 06:07:52;;;;;;;9.50;5.13;;;;;;;25.43;44.08;99882.66;5083953;28;20250;-60
2023/09/19 06:10:20;;;;;;;6.80;4.63;;;;;;;25.56;43.36;99884.72;5083883;28;20568;-60
2023/09/19 06:12:48;;;;;;;5.93;5.23;;;;;;;25.71;43.02;99873.72;5082523;28;20332;-60
2023/09/19 06:15:16;;;;;;;9.97;4.70;;;;;;;26.11;42.39;99884.28;5080880;28;20187;-61
2023/09/19 06:17:43;;;;;;;6.50;4.80;;;;;;;26.47;41.62;99881.97;5084142;28;20199;-60
2023/09/19 06:20:14;;;;;;;3.73;3.50;;;;;;;26.66;40.05;99888.34;5082392;28;20265;-61
2023/09/19 06:22:42;;;;;;;7.47;4.70;;;;;;;26.49;41.00;99875.13;5081698;28;20663;-60
2023/09/19 06:25:11;;;;;;;4.60;4.20;;;;;;;26.57;41.12;99876.38;5085092;28;20619;-60
2023/09/19 06:27:38;;;;;;;8.60;4.77;;;;;;;26.49;41.11;99885.22;5072849;28;20893;-60
2023/09/19 06:30:07;;;;;;;10.87;4.90;;;;;;;26.46;41.20;99877.63;5071363;28;20196;-61
2023/09/19 06:32:33;;;;;;;9.07;5.20;;;;;;;26.54;41.59;99874.28;5086064;28;20199;-61
2023/09/19 06:35:00;;;;;;;6.37;5.10;;;;;;;26.79;41.36;99873.97;5086340;28;20229;-62
2023/09/19 06:37:29;;;;;;;5.20;4.90;;;;;;;27.11;40.54;99876.81;5089994;28;20199;-61
2023/09/19 06:39:56;;;;;;;10.57;5.03;;;;;;;27.55;40.26;99874.50;5091091;28;20191;-62
2023/09/19 06:42:23;;;;;;;10.93;5.10;;;;;;;27.40;40.55;99877.50;5092244;28;20299;-60
2023/09/19 06:44:50;;;;;;;8.77;4.93;;;;;;;27.35;40.57;99872.91;5091003;28;20196;-61
2023/09/19 06:47:17;;;;;;;4.50;4.07;;;;;;;27.14;40.62;99868.84;5092507;28;20219;-61
2023/09/19 06:49:45;;;;;;;9.23;4.13;;;;;;;27.31;40.75;99871.09;5076052;28;20187;-61
2023/09/19 06:52:12;;;;;;;7.83;5.13;;;;;;;27.63;40.20;99869.19;5082204;28;20734;-61
2023/09/19 06:54:41;;;;;;;8.97;4.87;;;;;;;27.87;39.43;99863.63;5073580;28;20192;-62
2023/09/19 06:57:09;;;;;;;4.77;4.10;;;;;;;27.96;39.13;99867.28;5072673;28;20200;-61
2023/09/19 06:59:37;;;;;;;4.07;3.77;;;;;;;27.94;39.26;99867.63;5077148;28;20195;-62
2023/09/19 07:02:05;;;;;;;5.37;4.30;;;;;;;28.04;39.36;99859.22;5083637;28;20279;-61
2023/09/19 07:04:33;;;;;;;8.33;4.10;;;;;;;28.24;38.87;99860.75;5072495;28;20274;-61
2023/09/19 07:07:00;;;;;;;6.77;3.97;;;;;;;28.45;38.86;99859.28;5083876;28;20281;-61
2023/09/19 07:09:27;;;;;;;12.77;5.07;;;;;;;28.65;37.71;99864.31;5092544;28;20236;-60
2023/09/19 07:11:56;;;;;;;5.30;4.80;;;;;;;28.60;37.91;99861.72;5092473;28;20278;-61
2023/09/19 07:14:22;;;;;;;9.63;4.27;;;;;;;28.62;38.38;99864.94;5076977;28;20563;-61
2023/09/19 07:16:49;;;;;;;6.63;4.33;;;;;;;28.69;37.82;99865.34;5077901;28;20183;-61
2023/09/19 07:19:16;;;;;;;10.97;4.43;;;;;;;28.38;38.28;99865.13;5081334;28;20296;-61
2023/09/19 07:21:43;;;;;;;5.33;4.27;;;;;;;28.31;38.77;99852.97;5080586;28;20187;-61
2023/09/19 07:24:10;;;;;;;4.73;4.17;;;;;;;28.33;38.77;99856.19;5080312;28;20260;-60
2023/09/19 07:26:36;;;;;;;5.20;4.77;;;;;;;28.44;38.47;99858.47;5091496;28;20282;-60
2023/09/19 07:29:06;;;;;;;4.23;3.83;;;;;;;28.64;38.40;99858.06;5085933;28;20269;-60
2023/09/19 07:31:33;;;;;;;5.17;4.37;;;;;;;28.76;38.02;99857.53;5087846;28;21014;-60
2023/09/19 07:34:00;;;;;;;17.90;5.47;;;;;;;28.64;38.67;99857.25;5091759;28;20594;-60
2023/09/19 07:36:29;;;;;;;4.77;4.10;;;;;;;28.77;37.85;99859.97;5091989;28;20191;-60
2023/09/19 07:38:57;;;;;;;5.80;4.33;;;;;;;28.49;37.84;99852.09;5091623;28;20570;-60
2023/09/19 07:41:25;;;;;;;6.63;4.13;;;;;;;28.41;38.49;99845.41;5087484;28;20211;-60
2023/09/19 07:43:52;;;;;;;10.33;4.00;;;;;;;28.25;39.22;99837.78;5092190;28;20195;-60
2023/09/19 07:46:20;;;;;;;4.33;3.73;;;;;;;28.27;38.35;99841.84;5079578;28;20192;-61
2023/09/19 07:48:48;;;;;;;7.57;4.33;;;;;;;28.22;38.32;99833.72;5074909;28;20580;-61
2023/09/19 07:51:15;;;;;;;8.77;4.30;;;;;;;28.41;38.23;99836.38;5091767;28;20203;-61
2023/09/19 07:53:43;;;;;;;13.70;4.50;;;;;;;28.88;38.23;99834.00;5078400;28;20219;-62
2023/09/19 07:56:10;;;;;;;4.37;3.97;;;;;;;29.01;37.47;99830.47;5071118;28;20214;-60
2023/09/19 07:58:43;;;;;;;4.57;3.77;;;;;;;29.20;36.79;99822.09;5072931;28;20195;-61
2023/09/19 08:01:13;;;;;;;4.27;3.97;;;;;;;29.23;36.47;99820.66;5090085;28;20274;-61
2023/09/19 08:03:42;;;;;;;7.77;4.37;;;;;;;29.18;35.99;99816.13;5089316;28;20230;-60
2023/09/19 08:06:08;;;;;;;5.23;4.27;;;;;;;29.30;35.80;99808.16;5072180;28;20264;-60
2023/09/19 08:08:36;;;;;;;5.43;4.23;;;;;;;29.39;35.66;99808.22;5083914;28;20218;-61
2023/09/19 08:11:10;;;;;;;8.50;4.53;;;;;;;28.83;37.55;99806.75;5083602;28;20373;-60
2023/09/19 08:13:37;;;;;;;7.67;5.00;;;;;;;28.79;36.75;99804.97;5086266;28;20279;-60
2023/09/19 08:16:04;;;;;;;7.70;5.10;;;;;;;28.98;36.46;99809.16;5074705;28;20652;-61
2023/09/19 08:18:31;;;;;;;6.40;4.73;;;;;;;29.20;36.00;99808.41;5079615;28;20195;-60
2023/09/19 08:21:00;;;;;;;5.27;4.20;;;;;;;29.25;35.66;99808.28;5074942;28;20631;-60
2023/09/19 08:23:28;;;;;;;4.73;4.33;;;;;;;28.49;36.91;99800.13;5082620;28;20192;-60
2023/09/19 08:25:58;;;;;;;4.77;4.37;;;;;;;28.47;37.31;99799.66;5081730;28;20664;-60
2023/09/19 08:28:24;;;;;;;4.53;4.03;;;;;;;28.25;38.00;99788.59;5079515;28;20302;-61
2023/09/19 08:30:53;;;;;;;7.73;4.70;;;;;;;28.51;38.05;99787.00;5078901;28;20218;-62
2023/09/19 08:33:20;;;;;;;9.10;4.63;;;;;;;28.78;37.64;99790.47;5079076;28;20664;-61
2023/09/19 08:35:47;;;;;;;7.57;4.60;;;;;;;28.93;37.05;99781.94;5077121;28;20198;-61
2023/09/19 08:38:15;;;;;;;5.53;4.60;;;;;;;28.82;36.24;99776.97;5079886;28;20249;-61
2023/09/19 08:40:43;;;;;;;4.37;4.07;;;;;;;28.50;37.09;99780.72;5077944;28;20268;-61
2023/09/19 08:43:10;;;;;;;4.67;4.23;;;;;;;28.54;37.06;99778.19;5079915;28;20836;-60
2023/09/19 08:45:38;;;;;;;5.57;3.90;;;;;;;28.67;37.85;99769.94;5081627;28;20242;-58
2023/09/19 08:48:17;;;;;;;4.50;4.20;;;;;;;28.86;36.43;99762.38;5079275;28;20210;-59
2023/09/19 08:50:49;;;;;;;7.13;3.80;;;;;;;28.70;36.38;99763.84;5074414;28;20678;-60
2023/09/19 08:53:27;;;;;;;4.70;4.00;;;;;;;29.15;35.57;99770.19;5078506;28;20549;-59
2023/09/19 08:55:56;;;;;;;8.90;4.40;;;;;;;29.61;34.96;99767.97;5077011;28;20215;-63
2023/09/19 08:58:27;;;;;;;10.03;4.17;;;;;;;29.94;34.67;99766.53;5080074;28;20187;-61
2023/09/19 09:00:55;;;;;;;8.43;5.20;;;;;;;29.95;33.77;99768.13;5077221;28;20207;-61
2023/09/19 09:03:23;;;;;;;7.13;4.30;;;;;;;30.10;33.88;99766.91;5080862;28;20564;-61
2023/09/19 09:05:52;;;;;;;6.80;4.20;;;;;;;30.31;33.86;99768.78;5082716;28;20192;-62
2023/09/19 09:08:21;;;;;;;7.77;4.60;;;;;;;30.49;33.69;99767.69;5078476;28;20219;-62
2023/09/19 09:10:48;;;;;;;7.67;6.37;;;;;;;30.38;33.84;99760.88;5079267;28;20192;-61
2023/09/19 09:13:15;;;;;;;11.97;6.07;;;;;;;30.39;33.20;99757.03;5079291;28;20667;-62
2023/09/19 09:15:44;;;;;;;5.97;4.20;;;;;;;30.27;32.58;99753.28;5078532;28;20223;-61
2023/09/19 09:18:11;;;;;;;5.10;4.53;;;;;;;29.85;33.21;99746.50;5080592;28;20188;-61
2023/09/19 09:20:38;;;;;;;4.57;3.77;;;;;;;29.68;32.79;99746.41;5082923;28;20195;-59
2023/09/19 09:23:06;;;;;;;5.00;4.43;;;;;;;29.08;33.98;99737.00;5075006;28;20203;-61
2023/09/19 09:25:50;;;;;;;6.37;4.07;;;;;;;29.22;33.70;99743.22;5082113;28;20195;-60
2023/09/19 09:28:20;;;;;;;4.43;4.00;;;;;;;29.32;34.02;99742.97;5088456;28;20227;-60
2023/09/19 09:30:47;;;;;;;12.07;7.47;;;;;;;29.43;34.81;99732.56;5087452;28;20176;-61
2023/09/19 09:33:16;;;;;;;13.17;6.00;;;;;;;29.59;34.77;99731.88;5070532;28;20192;-65
2023/09/19 09:35:51;;;;;;;47.83;33.20;;;;;;;29.81;33.63;99731.84;5085104;28;20274;-66
2023/09/19 09:38:19;;;;;;;10.13;5.90;;;;;;;29.96;33.45;99725.13;5091964;28;20201;-66
2023/09/19 09:41:00;;;;;;;6.70;4.03;;;;;;;30.17;33.63;99726.97;5092883;28;20314;-66
2023/09/19 09:43:35;;;;;;;31.87;23.80;;;;;;;29.95;33.42;99731.69;5093246;28;20187;-67
2023/09/19 09:46:54;;;;;;;6.57;4.60;;;;;;;30.00;32.95;99726.88;5092868;28;20220;-66
2023/09/19 09:49:19;;;;;;;56.67;38.60;;;;;;;29.67;33.66;99711.94;5082728;28;20601;-67
2023/09/19 09:51:57;;;;;;;24.97;19.87;;;;;;;29.61;34.13;99706.91;5073317;28;20188;-64
2023/09/19 09:54:27;;;;;;;7.57;5.07;;;;;;;29.79;33.48;99705.84;5073866;28;20187;-64
2023/09/19 09:56:58;;;;;;;11.87;10.20;;;;;;;29.89;34.00;99703.66;5092568;28;20295;-65
2023/09/19 09:59:50;;;;;;;7.73;4.13;;;;;;;29.79;33.69;99698.44;5092790;28;20278;-64
2023/09/19 10:02:23;;;;;;;13.87;4.50;;;;;;;29.51;33.77;99688.78;5093418;28;20245;-66
2023/09/19 10:04:59;;;;;;;6.30;5.63;;;;;;;29.15;34.27;99688.09;5093663;28;20207;-64
2023/09/19 10:07:32;;;;;;;12.60;5.40;;;;;;;28.65;35.96;99684.69;5090227;28;20656;-64
2023/09/19 10:10:09;;;;;;;19.23;6.23;;;;;;;28.45;36.79;99684.34;5073675;28;20216;-64
2023/09/19 10:12:42;;;;;;;11.63;10.17;;;;;;;28.50;36.41;99686.97;5073899;28;20219;-65
2023/09/19 10:15:11;;;;;;;5.17;4.73;;;;;;;28.79;35.89;99692.84;5073944;28;20196;-65
2023/09/19 10:17:43;;;;;;;9.87;5.07;;;;;;;29.11;35.73;99681.66;5073474;28;20733;-65
2023/09/19 10:20:32;;;;;;;5.37;4.40;;;;;;;29.46;34.42;99688.94;5073944;28;20275;-65
2023/09/19 10:23:00;;;;;;;4.97;4.40;;;;;;;29.70;34.34;99683.09;5073401;28;20188;-65
2023/09/19 10:25:30;;;;;;;6.23;5.33;;;;;;;29.83;34.30;99680.25;5073592;28;20196;-65
2023/09/19 10:28:02;;;;;;;8.03;5.00;;;;;;;29.21;34.44;99675.94;5073296;28;20210;-65
2023/09/19 10:30:30;;;;;;;8.73;5.00;;;;;;;29.23;34.66;99676.41;5072320;28;20185;-65
2023/09/19 10:33:01;;;;;;;5.47;4.93;;;;;;;29.18;34.61;99671.06;5073321;28;20188;-65
2023/09/19 10:35:28;;;;;;;5.13;4.43;;;;;;;29.27;34.22;99671.91;5075537;28;20188;-64
2023/09/19 10:38:00;;;;;;;5.07;4.57;;;;;;;29.17;35.03;99664.00;5077696;28;20196;-64
2023/09/19 10:40:30;;;;;;;8.20;4.87;;;;;;;29.03;35.47;99650.38;5072936;28;20243;-61
2023/09/19 10:43:05;;;;;;;6.30;4.80;;;;;;;28.93;35.12;99652.53;5072895;28;20191;-60
2023/09/19 10:45:32;;;;;;;7.43;5.47;;;;;;;28.77;36.26;99643.09;5072863;28;20183;-61
2023/09/19 10:47:59;;;;;;;5.03;4.63;;;;;;;28.73;36.24;99642.09;5071369;28;20212;-62
2023/09/19 10:50:31;;;;;;;8.63;5.00;;;;;;;28.77;35.56;99643.09;5088408;28;20199;-60
2023/09/19 10:53:04;;;;;;;5.03;4.60;;;;;;;28.93;35.42;99636.13;5092864;28;20195;-60
2023/09/19 10:55:35;;;;;;;5.83;5.00;;;;;;;28.87;35.55;99643.66;5092321;28;20599;-61
2023/09/19 10:58:10;;;;;;;6.27;5.00;;;;;;;28.90;35.33;99629.34;5092499;28;20187;-61
2023/09/19 11:00:52;;;;;;;5.70;4.67;;;;;;;28.87;35.71;99629.97;5092746;28;20249;-60
2023/09/19 11:03:30;;;;;;;7.17;4.40;;;;;;;28.83;35.72;99614.53;5092413;28;20278;-60
2023/09/19 11:06:09;;;;;;;5.70;5.30;;;;;;;28.53;36.23;99626.19;5091834;28;20207;-60
2023/09/19 11:09:07;;;;;;;6.33;4.50;;;;;;;27.73;37.84;99622.50;5092160;28;20203;-60
2023/09/19 11:11:46;;;;;;;5.80;4.83;;;;;;;28.02;37.47;99614.78;5091814;28;20215;-60
2023/09/19 11:14:30;;;;;;;5.50;4.87;;;;;;;28.14;37.29;99609.59;5088614;28;20675;-62
2023/09/19 11:17:31;;;;;;;9.27;4.57;;;;;;;28.21;36.83;99607.25;5071374;28;20191;-61
2023/09/19 11:20:25;;;;;;;6.30;4.83;;;;;;;28.41;36.46;99599.41;5071611;28;20191;-61
2023/09/19 11:23:30;;;;;;;5.20;4.33;;;;;;;28.43;36.60;99599.13;5071864;28;20287;-61
2023/09/19 11:25:57;;;;;;;7.57;4.47;;;;;;;28.45;36.77;99588.66;5071773;28;20191;-62
2023/09/19 11:28:35;;;;;;;5.60;5.03;;;;;;;28.54;36.97;99590.34;5071026;28;20223;-61
2023/09/19 11:31:53;;;;;;;7.97;4.63;;;;;;;28.38;36.69;99588.28;5071826;28;20220;-61
2023/09/19 11:34:48;;;;;;;5.23;4.67;;;;;;;28.65;36.32;99579.97;5080038;28;20205;-62
2023/09/19 11:38:15;;;;;;;5.00;4.50;;;;;;;28.86;35.47;99581.06;5085372;28;20180;-62
2023/09/19 11:40:55;;;;;;;7.17;4.60;;;;;;;28.85;34.92;99573.97;5081127;28;20219;-61
2023/09/19 11:43:41;;;;;;;4.53;4.13;;;;;;;29.02;35.35;99568.63;5081532;28;20187;-63
2023/09/19 11:46:07;;;;;;;4.23;4.03;;;;;;;29.14;35.51;99566.09;5070385;28;20185;-61
2023/09/19 11:48:37;;;;;;;4.57;4.17;;;;;;;29.24;35.32;99565.84;5072640;28;20216;-61